createdAt,value
2023-05-14T00:01:25.369Z,33.90
2023-05-14T00:03:54.158Z,33.92
2023-05-14T00:06:22.861Z,36.33
2023-05-14T00:08:51.427Z,38.27
2023-05-14T00:11:20.420Z,39.10
2023-05-14T00:13:48.986Z,36.97
2023-05-14T00:16:18.956Z,38.53
2023-05-14T00:18:47.562Z,38.87
2023-05-14T00:21:16.051Z,39.17
2023-05-14T00:23:44.793Z,41.70
2023-05-14T00:26:13.429Z,41.87
2023-05-14T00:28:41.988Z,41.30
2023-05-14T00:31:10.630Z,41.10
2023-05-14T00:33:40.578Z,37.10
2023-05-14T00:36:10.251Z,36.90
2023-05-14T00:38:38.765Z,28.00
2023-05-14T00:41:07.293Z,29.33
2023-05-14T00:43:35.992Z,28.43
2023-05-14T00:46:04.583Z,26.47
2023-05-14T00:48:33.200Z,28.50
2023-05-14T00:51:03.255Z,26.23
2023-05-14T00:53:32.024Z,28.00
2023-05-14T00:56:00.803Z,27.27
2023-05-14T00:58:29.597Z,25.63
2023-05-14T01:00:58.163Z,25.93
2023-05-14T01:03:26.773Z,26.67
2023-05-14T01:06:02.375Z,27.23
2023-05-14T01:08:42.737Z,25.43
2023-05-14T01:11:18.965Z,26.17
2023-05-14T01:14:06.950Z,23.57
2023-05-14T01:16:37.870Z,23.80
2023-05-14T01:19:09.280Z,22.27
2023-05-14T01:21:45.644Z,22.87
2023-05-14T01:24:14.294Z,22.97
2023-05-14T01:26:42.856Z,22.20
2023-05-14T01:29:17.907Z,24.03
2023-05-14T01:31:48.585Z,23.20
2023-05-14T01:34:21.253Z,21.87
2023-05-14T01:36:52.990Z,21.27
2023-05-14T01:43:07.956Z,21.47
2023-05-14T01:45:37.549Z,21.00
2023-05-14T01:48:06.748Z,20.87
2023-05-14T01:50:35.363Z,20.73
2023-05-14T01:53:05.292Z,22.50
2023-05-14T01:55:33.856Z,22.23
2023-05-14T01:58:02.363Z,22.87
2023-05-14T02:00:30.888Z,22.90
2023-05-14T02:02:59.713Z,24.30
2023-05-14T02:05:28.360Z,22.53
2023-05-14T02:07:56.902Z,22.47
2023-05-14T02:10:26.935Z,22.43
2023-05-14T02:12:55.624Z,24.17
2023-05-14T02:15:24.163Z,24.07
2023-05-14T02:17:52.821Z,22.63
2023-05-14T02:20:21.693Z,23.33
2023-05-14T02:22:50.331Z,23.80
2023-05-14T02:25:19.227Z,24.63
2023-05-14T02:27:49.769Z,23.63
2023-05-14T02:30:18.390Z,23.60
2023-05-14T02:32:47.023Z,25.30
2023-05-14T02:35:15.631Z,25.10
2023-05-14T02:37:44.518Z,24.70
2023-05-14T02:40:13.501Z,23.70
2023-05-14T02:42:42.105Z,24.60
2023-05-14T02:45:12.773Z,24.77
2023-05-14T02:47:41.668Z,24.37
2023-05-14T02:50:11.390Z,26.00
2023-05-14T02:52:40.001Z,25.60
2023-05-14T02:55:09.159Z,25.43
2023-05-14T02:57:37.739Z,25.90
2023-05-14T03:00:07.693Z,25.10
2023-05-14T03:02:38.245Z,23.90
2023-05-14T03:05:08.162Z,26.07
2023-05-14T03:07:36.742Z,26.50
2023-05-14T03:10:06.102Z,27.80
2023-05-14T03:12:34.619Z,28.70
2023-05-14T03:15:03.177Z,27.60
2023-05-14T03:17:31.877Z,27.20
2023-05-14T03:20:01.946Z,26.80
2023-05-14T03:22:30.835Z,29.47
2023-05-14T03:24:59.346Z,30.87
2023-05-14T03:27:28.153Z,32.77
2023-05-14T03:29:56.899Z,33.77
2023-05-14T03:32:25.467Z,38.00
2023-05-14T03:34:54.294Z,41.10
2023-05-14T03:37:24.234Z,44.33
2023-05-14T03:39:52.852Z,45.17
2023-05-14T03:42:21.357Z,39.73
2023-05-14T03:44:49.845Z,37.43
2023-05-14T03:47:18.385Z,35.77
2023-05-14T03:49:46.880Z,37.90
2023-05-14T03:52:15.610Z,37.37
2023-05-14T03:54:45.551Z,40.47
2023-05-14T03:57:14.064Z,40.13
2023-05-14T03:59:42.587Z,40.87
2023-05-14T04:02:11.300Z,38.43
2023-05-14T04:04:40.399Z,34.87
2023-05-14T04:07:08.972Z,31.20
2023-05-14T04:09:37.554Z,30.60
2023-05-14T04:12:08.810Z,29.75
2023-05-14T04:14:37.360Z,27.35
2023-05-14T04:17:06.322Z,28.65
2023-05-14T04:19:34.831Z,29.95
2023-05-14T04:22:03.338Z,31.05
2023-05-14T04:24:31.948Z,29.08
2023-05-14T04:27:01.388Z,28.42
2023-05-14T04:29:31.689Z,27.67
2023-05-14T04:32:00.653Z,27.75
2023-05-14T04:34:29.977Z,26.10
2023-05-14T04:36:58.515Z,25.25
2023-05-14T04:39:27.136Z,22.90
2023-05-14T04:41:55.660Z,22.40
2023-05-14T04:44:24.246Z,22.33
2023-05-14T04:46:54.131Z,22.33
2023-05-14T04:49:23.029Z,20.65
2023-05-14T04:51:51.568Z,20.65
2023-05-14T04:54:20.264Z,19.10
2023-05-14T04:56:49.036Z,19.17
2023-05-14T04:59:17.790Z,17.90
2023-05-14T05:01:46.585Z,17.58
2023-05-14T05:04:16.667Z,16.25
2023-05-14T05:06:45.548Z,15.68
2023-05-14T05:09:14.141Z,15.32
2023-05-14T05:11:42.727Z,13.90
2023-05-14T05:14:11.361Z,13.32
2023-05-14T05:16:39.934Z,12.67
2023-05-14T05:19:08.620Z,11.88
2023-05-14T05:21:41.181Z,12.45
2023-05-14T05:24:09.937Z,11.77
2023-05-14T05:26:38.565Z,10.65
2023-05-14T05:29:07.715Z,10.07
2023-05-14T05:31:36.818Z,10.02
2023-05-14T05:34:06.766Z,10.20
2023-05-14T05:36:35.451Z,9.07
2023-05-14T05:39:05.694Z,10.10
2023-05-14T05:41:34.351Z,9.63
2023-05-14T05:44:02.905Z,9.43
2023-05-14T05:46:31.429Z,9.80
2023-05-14T05:48:59.996Z,8.75
2023-05-14T05:51:28.756Z,8.90
2023-05-14T05:53:57.278Z,8.93
2023-05-14T05:56:27.247Z,8.40
2023-05-14T05:58:55.859Z,7.93
2023-05-14T06:01:24.560Z,7.82
2023-05-14T06:03:53.047Z,9.07
2023-05-14T06:06:22.049Z,7.60
2023-05-14T06:08:50.628Z,8.10
2023-05-14T06:11:19.204Z,7.63
2023-05-14T06:13:49.287Z,7.32
2023-05-14T06:16:17.879Z,7.32
2023-05-14T06:18:46.720Z,7.72
2023-05-14T06:21:15.370Z,7.15
2023-05-14T06:23:44.175Z,7.07
2023-05-14T06:26:12.751Z,6.70
2023-05-14T06:28:41.285Z,7.15
2023-05-14T06:31:11.286Z,6.70
2023-05-14T06:33:39.887Z,6.20
2023-05-14T06:36:09.550Z,7.28
2023-05-14T06:38:38.278Z,6.63
2023-05-14T06:41:06.867Z,7.00
2023-05-14T06:43:35.432Z,8.88
2023-05-14T06:46:04.160Z,6.20
2023-05-14T06:48:34.307Z,5.90
2023-05-14T06:51:04.210Z,9.38
2023-05-14T06:53:32.894Z,5.72
2023-05-14T06:56:01.698Z,5.30
2023-05-14T06:58:58.401Z,6.10
2023-05-14T07:01:27.223Z,5.80
2023-05-14T07:03:58.047Z,5.70
2023-05-14T07:06:26.884Z,5.50
2023-05-14T07:08:55.822Z,4.65
2023-05-14T07:11:24.563Z,4.15
2023-05-14T07:13:53.300Z,4.82
2023-05-14T07:16:24.451Z,5.20
2023-05-14T07:18:53.331Z,4.50
2023-05-14T07:21:24.177Z,4.43
2023-05-14T07:23:53.483Z,4.18
2023-05-14T07:26:25.809Z,3.83
2023-05-14T07:28:54.493Z,3.90
2023-05-14T07:31:26.622Z,4.38
2023-05-14T07:33:55.438Z,3.72
2023-05-14T07:36:26.591Z,3.95
2023-05-14T07:38:55.614Z,3.55
2023-05-14T07:41:24.656Z,3.50
2023-05-14T07:43:53.585Z,2.88
2023-05-14T07:46:25.043Z,2.90
2023-05-14T07:48:54.394Z,2.90
2023-05-14T07:51:23.408Z,3.15
2023-05-14T07:53:54.738Z,3.35
2023-05-14T07:56:23.609Z,2.80
2023-05-14T07:58:53.048Z,3.00
2023-05-14T08:01:24.340Z,3.28
2023-05-14T08:03:53.680Z,3.50
2023-05-14T08:06:29.945Z,3.00
2023-05-14T08:09:06.018Z,3.50
2023-05-14T08:11:35.064Z,3.60
2023-05-14T08:14:04.988Z,3.50
2023-05-14T08:16:37.579Z,3.40
2023-05-14T08:19:11.097Z,3.20
2023-05-14T08:21:42.238Z,3.47
2023-05-14T08:24:24.464Z,3.33
2023-05-14T08:26:53.584Z,3.25
2023-05-14T08:29:22.512Z,3.55
2023-05-14T08:31:52.338Z,3.47
2023-05-14T08:34:20.985Z,3.30
2023-05-14T08:36:49.684Z,3.00
2023-05-14T08:39:19.780Z,3.38
2023-05-14T08:41:49.198Z,3.30
2023-05-14T08:44:21.754Z,2.97
2023-05-14T08:46:52.689Z,3.40
2023-05-14T08:49:40.394Z,3.75
2023-05-14T08:52:11.947Z,2.80
2023-05-14T08:54:42.605Z,3.40
2023-05-14T08:57:12.735Z,3.20
2023-05-14T08:59:41.489Z,3.28
2023-05-14T09:02:13.286Z,3.55
2023-05-14T09:04:42.959Z,3.55
2023-05-14T09:07:12.035Z,4.13
2023-05-14T09:09:42.368Z,3.60
2023-05-14T09:12:11.690Z,3.83
2023-05-14T09:14:40.337Z,3.20
2023-05-14T09:17:12.765Z,3.55
2023-05-14T09:19:41.903Z,3.15
2023-05-14T09:22:12.833Z,3.00
2023-05-14T09:24:43.340Z,2.70
2023-05-14T09:27:17.618Z,2.83
2023-05-14T09:29:46.612Z,3.05
2023-05-14T09:32:15.552Z,2.72
2023-05-14T09:34:44.511Z,2.95
2023-05-14T09:37:13.210Z,2.50
2023-05-14T09:39:43.613Z,3.40
2023-05-14T09:42:12.188Z,2.78
2023-05-14T09:44:41.307Z,2.65
2023-05-14T09:47:10.040Z,2.85
2023-05-14T09:49:38.689Z,2.65
2023-05-14T09:52:08.668Z,16.20
2023-05-14T09:54:39.967Z,3.00
2023-05-14T09:57:10.132Z,2.70
2023-05-14T09:59:38.730Z,2.83
2023-05-14T10:02:12.629Z,2.75
2023-05-14T10:04:41.976Z,2.80
2023-05-14T10:07:11.167Z,2.90
2023-05-14T10:09:46.566Z,2.78
2023-05-14T10:12:18.421Z,2.60
2023-05-14T10:14:53.414Z,2.75
2023-05-14T10:17:23.551Z,2.83
2023-05-14T10:19:55.883Z,3.10
2023-05-14T10:22:27.365Z,3.20
2023-05-14T10:24:57.221Z,2.80
2023-05-14T10:27:28.060Z,2.90
2023-05-14T10:29:58.048Z,3.60
2023-05-14T10:32:27.632Z,2.38
2023-05-14T10:34:56.348Z,2.70
2023-05-14T10:37:26.883Z,2.70
2023-05-14T10:39:59.677Z,2.40
2023-05-14T10:42:33.805Z,2.60
2023-05-14T10:45:07.630Z,2.58
2023-05-14T10:47:38.286Z,2.83
2023-05-14T10:50:08.449Z,2.30
2023-05-14T10:52:37.419Z,3.00
2023-05-14T10:55:08.495Z,2.58
2023-05-14T10:57:41.349Z,2.47
2023-05-14T11:00:11.259Z,2.50
2023-05-14T11:02:42.868Z,2.70
2023-05-14T11:05:14.416Z,2.85
2023-05-14T11:07:45.285Z,2.95
2023-05-14T11:10:15.407Z,2.63
2023-05-14T11:12:46.908Z,2.45
2023-05-14T11:15:17.932Z,2.40
2023-05-14T11:17:47.902Z,2.58
2023-05-14T11:20:17.158Z,2.65
2023-05-14T11:22:48.116Z,3.17
2023-05-14T11:25:18.536Z,2.30
2023-05-14T11:27:48.967Z,2.63
2023-05-14T11:30:18.865Z,10.20
2023-05-14T11:32:49.433Z,2.60
2023-05-14T11:35:18.991Z,13.90
2023-05-14T11:37:53.342Z,3.03
2023-05-14T11:40:22.679Z,3.53
2023-05-14T11:42:54.859Z,3.63
2023-05-14T11:45:28.181Z,4.00
2023-05-14T11:47:56.752Z,2.55
2023-05-14T11:50:25.496Z,2.33
2023-05-14T11:52:58.873Z,2.97
2023-05-14T11:55:27.528Z,3.22
2023-05-14T11:57:57.995Z,2.60
2023-05-14T12:00:28.395Z,2.40
2023-05-14T12:02:57.087Z,2.45
2023-05-14T12:05:26.243Z,2.38
2023-05-14T12:07:56.620Z,5.13
2023-05-14T12:10:25.700Z,4.38
2023-05-14T12:12:54.874Z,2.40
2023-05-14T12:15:25.411Z,12.15
2023-05-14T12:17:54.085Z,4.00
2023-05-14T12:20:23.234Z,2.40
2023-05-14T12:22:51.980Z,2.33
2023-05-14T12:25:20.755Z,12.02
2023-05-14T12:27:49.287Z,3.28
2023-05-14T12:30:21.965Z,3.00
2023-05-14T12:32:53.425Z,2.20
2023-05-14T12:35:23.513Z,2.30
2023-05-14T12:37:53.515Z,2.10
2023-05-14T12:40:22.339Z,17.52
2023-05-14T12:42:51.174Z,15.32
2023-05-14T12:45:19.818Z,21.60
2023-05-14T12:47:48.632Z,2.70
2023-05-14T12:50:18.866Z,2.00
2023-05-14T12:52:47.952Z,2.22
2023-05-14T12:55:16.849Z,2.25
2023-05-14T12:57:45.628Z,2.60
2023-05-14T13:00:15.446Z,2.35
2023-05-14T13:02:44.312Z,2.28
2023-05-14T13:05:13.265Z,2.42
2023-05-14T13:07:43.590Z,2.35
2023-05-14T13:10:17.656Z,2.75
2023-05-14T13:12:46.472Z,2.60
2023-05-14T13:15:16.383Z,2.90
2023-05-14T13:17:45.264Z,3.22
2023-05-14T13:20:14.079Z,2.50
2023-05-14T13:22:47.853Z,3.38
2023-05-14T13:25:16.748Z,21.52
2023-05-14T13:27:47.994Z,2.60
2023-05-14T13:30:18.315Z,2.40
2023-05-14T13:32:47.127Z,2.30
2023-05-14T13:35:15.994Z,2.35
2023-05-14T13:37:46.400Z,6.93
2023-05-14T13:40:15.456Z,2.25
2023-05-14T13:42:46.882Z,2.30
2023-05-14T13:45:15.451Z,2.30
2023-05-14T13:47:44.645Z,2.40
2023-05-14T13:50:14.228Z,2.50
2023-05-14T13:52:47.276Z,2.80
2023-05-14T13:55:16.152Z,2.83
2023-05-14T13:57:44.838Z,3.00
2023-05-14T14:00:15.521Z,2.58
2023-05-14T14:02:44.070Z,3.10
2023-05-14T14:05:12.727Z,2.30
2023-05-14T14:07:41.532Z,2.50
2023-05-14T14:10:12.568Z,2.40
2023-05-14T14:12:41.177Z,2.00
2023-05-14T14:15:10.635Z,2.20
2023-05-14T14:17:39.221Z,2.58
2023-05-14T14:20:10.598Z,2.53
2023-05-14T14:22:39.170Z,2.45
2023-05-14T14:25:08.782Z,2.35
2023-05-14T14:27:39.032Z,2.20
2023-05-14T14:30:10.178Z,2.63
2023-05-14T14:32:38.742Z,2.10
2023-05-14T14:35:08.047Z,2.53
2023-05-14T14:37:36.733Z,2.42
2023-05-14T14:40:07.467Z,2.38
2023-05-14T14:42:37.775Z,2.20
2023-05-14T14:45:07.536Z,2.22
2023-05-14T14:47:36.378Z,2.40
2023-05-14T14:50:05.312Z,2.35
2023-05-14T14:52:34.214Z,2.40
2023-05-14T14:55:02.757Z,2.40
2023-05-14T14:57:31.639Z,2.50
2023-05-14T15:00:02.558Z,2.33
2023-05-14T15:02:31.927Z,2.42
2023-05-14T15:05:00.541Z,2.30
2023-05-14T15:07:33.171Z,2.50
2023-05-14T15:10:02.170Z,19.80
2023-05-14T15:12:33.517Z,3.08
2023-05-14T15:15:04.178Z,2.85
2023-05-14T15:17:32.777Z,2.50
2023-05-14T15:20:01.351Z,2.70
2023-05-14T15:22:47.949Z,2.83
2023-05-14T15:25:34.803Z,2.95
2023-05-14T15:28:19.735Z,3.25
2023-05-14T15:31:03.935Z,3.22
2023-05-14T15:33:52.606Z,2.60
2023-05-14T15:36:32.403Z,2.25
2023-05-14T15:39:13.403Z,2.50
2023-05-14T15:41:55.664Z,2.58
2023-05-14T15:44:38.961Z,2.40
2023-05-14T15:47:20.195Z,2.40
2023-05-14T15:49:59.145Z,2.58
2023-05-14T15:52:40.956Z,2.42
2023-05-14T15:55:23.999Z,2.58
2023-05-14T15:58:05.463Z,2.30
2023-05-14T16:00:48.419Z,2.72
2023-05-14T16:03:36.005Z,2.03
2023-05-14T16:06:17.382Z,2.58
2023-05-14T16:08:59.263Z,2.70
2023-05-14T16:11:37.861Z,2.30
2023-05-14T16:14:15.945Z,2.40
2023-05-14T16:16:54.248Z,2.10
2023-05-14T16:19:34.379Z,2.25
2023-05-14T16:22:05.328Z,2.50
2023-05-14T16:24:38.984Z,2.42
2023-05-14T16:27:07.872Z,2.33
2023-05-14T16:29:36.898Z,2.40
2023-05-14T16:32:05.780Z,2.97
2023-05-14T16:34:35.789Z,3.20
2023-05-14T16:37:04.440Z,2.78
2023-05-14T16:39:33.003Z,2.40
2023-05-14T16:42:01.569Z,2.30
2023-05-14T16:44:30.182Z,2.63
2023-05-14T16:46:58.714Z,2.80
2023-05-14T16:49:27.295Z,2.67
2023-05-14T16:51:57.330Z,2.95
2023-05-14T16:54:26.051Z,2.42
2023-05-14T16:56:55.088Z,2.67
2023-05-14T16:59:28.242Z,3.13
2023-05-14T17:01:58.486Z,2.80
2023-05-14T17:04:27.532Z,2.38
2023-05-14T17:06:58.792Z,2.83
2023-05-14T17:09:27.604Z,2.88
2023-05-14T17:11:56.163Z,2.88
2023-05-14T17:14:24.975Z,3.22
2023-05-14T17:16:53.770Z,2.50
2023-05-14T17:19:22.439Z,2.50
2023-05-14T17:21:51.392Z,2.50
2023-05-14T17:24:21.473Z,2.55
2023-05-14T17:26:50.294Z,3.20
2023-05-14T17:29:18.864Z,2.70
2023-05-14T17:31:48.385Z,3.22
2023-05-14T17:34:18.002Z,2.60
2023-05-14T17:36:47.076Z,2.72
2023-05-14T17:39:16.213Z,2.72
2023-05-14T17:41:48.652Z,3.30
2023-05-14T17:44:17.335Z,2.85
2023-05-14T17:46:46.254Z,2.80
2023-05-14T17:49:15.554Z,2.95
2023-05-14T17:51:44.081Z,3.08
2023-05-14T17:54:12.716Z,2.97
2023-05-14T17:56:41.486Z,3.13
2023-05-14T17:59:11.413Z,3.47
2023-05-14T18:01:39.940Z,3.17
2023-05-14T18:04:08.780Z,3.08
2023-05-14T18:06:37.769Z,3.03
2023-05-14T18:09:06.520Z,3.50
2023-05-14T18:11:35.762Z,3.28
2023-05-14T18:14:05.033Z,4.10
2023-05-14T18:16:35.117Z,5.40
2023-05-14T18:19:03.901Z,6.50
2023-05-14T18:21:32.616Z,8.30
2023-05-14T18:24:01.212Z,6.43
2023-05-14T18:26:31.271Z,6.95
2023-05-14T18:29:01.522Z,7.32
2023-05-14T18:31:30.441Z,9.00
2023-05-14T18:34:00.419Z,8.30
2023-05-14T18:36:29.037Z,8.85
2023-05-14T18:38:57.723Z,10.13
2023-05-14T18:41:26.863Z,8.48
2023-05-14T18:43:55.783Z,9.65
2023-05-14T18:46:24.824Z,10.55
2023-05-14T18:48:53.495Z,6.57
2023-05-14T18:51:23.476Z,9.90
2023-05-14T18:53:52.225Z,20.10
2023-05-14T18:56:21.660Z,53.63
2023-05-14T18:58:50.296Z,57.55
2023-05-14T19:01:18.832Z,44.38
2023-05-14T19:03:47.491Z,40.20
2023-05-14T19:06:16.279Z,24.13
2023-05-14T19:08:58.769Z,21.33
2023-05-14T19:11:27.332Z,31.85
2023-05-14T19:13:55.999Z,17.90
2023-05-14T19:16:24.895Z,4.90
2023-05-14T19:18:53.770Z,4.00
2023-05-14T19:21:22.339Z,5.50
2023-05-14T19:23:50.921Z,14.88
2023-05-14T19:26:21.667Z,10.02
2023-05-14T19:28:51.288Z,14.00
2023-05-14T19:31:20.067Z,12.60
2023-05-14T19:33:48.831Z,10.18
2023-05-14T19:36:18.906Z,14.73
2023-05-14T19:38:47.636Z,16.13
2023-05-14T19:41:16.651Z,12.48
2023-05-14T19:43:46.618Z,14.02
2023-05-14T19:46:15.286Z,16.00
2023-05-14T19:48:43.835Z,10.32
2023-05-14T19:51:12.384Z,13.48
2023-05-14T19:53:41.409Z,14.90
2023-05-14T19:56:10.070Z,16.63
2023-05-14T19:58:38.711Z,16.80
2023-05-14T20:01:11.022Z,24.20
2023-05-14T20:03:39.854Z,23.05
2023-05-14T20:06:08.574Z,21.38
2023-05-14T20:08:37.791Z,25.85
2023-05-14T20:11:06.621Z,21.15
2023-05-14T20:13:36.809Z,17.70
2023-05-14T20:16:05.554Z,17.65
2023-05-14T20:18:35.915Z,21.10
2023-05-14T20:21:04.776Z,20.97
2023-05-14T20:23:33.812Z,26.88
2023-05-14T20:26:02.637Z,53.63
2023-05-14T20:28:31.234Z,44.72
2023-05-14T20:31:01.477Z,30.25
2023-05-14T20:33:30.576Z,28.50
2023-05-14T20:36:03.701Z,23.23
2023-05-14T20:38:33.203Z,23.45
2023-05-14T20:41:02.355Z,22.02
2023-05-14T20:43:33.325Z,17.45
2023-05-14T20:46:02.546Z,11.07
2023-05-14T20:48:31.630Z,6.75
2023-05-14T20:51:01.901Z,10.85
2023-05-14T20:53:31.484Z,8.38
2023-05-14T20:56:01.451Z,12.15
2023-05-14T20:58:30.104Z,9.35
2023-05-14T21:01:00.445Z,11.50
2023-05-14T21:03:29.329Z,12.50
2023-05-14T21:05:58.441Z,10.85
2023-05-14T21:08:30.432Z,8.68
2023-05-14T21:10:59.043Z,9.90
2023-05-14T21:13:27.553Z,8.95
2023-05-14T21:15:56.391Z,9.32
2023-05-14T21:18:27.337Z,10.48
2023-05-14T21:20:56.032Z,9.77
2023-05-14T21:23:28.635Z,8.45
2023-05-14T21:25:59.032Z,8.50
2023-05-14T21:28:27.674Z,7.22
2023-05-14T21:30:56.616Z,7.68
2023-05-14T21:33:26.004Z,8.38
2023-05-14T21:35:54.683Z,6.70
2023-05-14T21:38:23.322Z,6.93
2023-05-14T21:40:51.916Z,6.50
2023-05-14T21:43:22.425Z,5.70
2023-05-14T21:45:51.119Z,6.28
2023-05-14T21:48:20.247Z,6.78
2023-05-14T21:50:48.956Z,8.32
2023-05-14T21:53:17.663Z,8.27
2023-05-14T21:55:46.303Z,9.52
2023-05-14T21:58:14.945Z,9.07
2023-05-14T22:00:45.097Z,10.02
2023-05-14T22:03:13.875Z,12.57
2023-05-14T22:05:42.580Z,10.32
2023-05-14T22:08:11.951Z,8.88
2023-05-14T22:10:41.119Z,11.48
2023-05-14T22:13:09.648Z,8.25
2023-05-14T22:15:38.274Z,12.38
2023-05-14T22:18:08.543Z,9.07
2023-05-14T22:20:37.248Z,11.43
2023-05-14T22:23:05.928Z,10.57
2023-05-14T22:25:34.499Z,9.32
2023-05-14T22:28:03.154Z,7.65
2023-05-14T22:30:31.803Z,6.78
2023-05-14T22:33:00.370Z,6.60
2023-05-14T22:35:30.498Z,5.47
2023-05-14T22:37:59.081Z,5.22
2023-05-14T22:40:27.658Z,5.18
2023-05-14T22:42:56.265Z,4.57
2023-05-14T22:45:25.432Z,5.07
2023-05-14T22:47:54.455Z,5.10
2023-05-14T22:50:23.023Z,4.90
2023-05-14T22:52:52.976Z,4.45
2023-05-14T22:55:21.768Z,4.57
2023-05-14T22:57:50.599Z,4.43
2023-05-14T23:00:19.905Z,4.90
2023-05-14T23:02:48.762Z,3.95
2023-05-14T23:05:17.451Z,4.43
2023-05-14T23:07:46.069Z,3.97
2023-05-14T23:10:16.180Z,4.70
2023-05-14T23:12:44.695Z,3.95
2023-05-14T23:15:13.418Z,4.78
2023-05-14T23:17:42.941Z,4.78
2023-05-14T23:20:12.810Z,4.50
2023-05-14T23:22:41.538Z,5.03
2023-05-14T23:25:11.151Z,4.07
2023-05-14T23:27:41.260Z,4.32
2023-05-14T23:30:10.808Z,3.97
2023-05-14T23:32:39.390Z,4.30
2023-05-14T23:35:08.349Z,4.10
2023-05-14T23:37:41.833Z,3.95
2023-05-14T23:40:11.358Z,4.47
2023-05-14T23:42:41.331Z,4.60
2023-05-14T23:45:10.946Z,4.97
2023-05-14T23:47:39.561Z,5.82
2023-05-14T23:50:08.729Z,6.68
2023-05-14T23:52:37.303Z,5.38
2023-05-14T23:55:06.642Z,5.10
2023-05-14T23:57:35.287Z,5.22
